Time;durP1;ratioP1;P1;durP2;ratioP2;P2;SDS_P1;SDS_P2;PMS_P1;PMS_P2;Temp;Humidity;BMP_temperature;BMP_pressure;BME280_temperature;BME280_humidity;BME280_pressure;Samples;Min_cycle;Max_cycle;Signal;HPM_P1;HPM_P2
2022/03/09 00:00:07;;;;;;;18.83;9.02;;;0.40;99.90;;;;;;5015704;28;20108;-57
2022/03/09 00:02:33;;;;;;;18.45;8.10;;;0.50;99.90;;;;;;5015581;28;20033;-57
2022/03/09 00:04:59;;;;;;;22.75;9.23;;;0.50;99.90;;;;;;5015401;28;20025;-57
2022/03/09 00:07:27;;;;;;;25.63;9.88;;;0.50;99.90;;;;;;5016044;28;20354;-57
2022/03/09 00:09:52;;;;;;;31.30;11.57;;;0.50;99.90;;;;;;5015737;28;20045;-56
2022/03/09 00:12:18;;;;;;;29.17;12.15;;;0.60;99.90;;;;;;5016587;28;20080;-57
2022/03/09 00:14:43;;;;;;;21.00;9.82;;;0.60;99.90;;;;;;5016601;28;20029;-55
2022/03/09 00:17:09;;;;;;;17.85;7.72;;;0.40;99.90;;;;;;5016455;28;20030;-52
2022/03/09 00:19:35;;;;;;;16.00;7.47;;;0.30;99.90;;;;;;5015334;28;20061;-50
2022/03/09 00:22:01;;;;;;;17.63;8.23;;;0.30;99.90;;;;;;5016841;28;20025;-50
2022/03/09 00:24:26;;;;;;;18.80;7.75;;;0.30;99.90;;;;;;5016611;28;20424;-51
2022/03/09 00:26:52;;;;;;;16.63;7.90;;;0.40;99.90;;;;;;5016286;28;20049;-51
2022/03/09 00:29:17;;;;;;;23.48;9.20;;;0.40;99.90;;;;;;5015125;28;20021;-51
2022/03/09 00:31:43;;;;;;;20.33;9.40;;;0.50;99.90;;;;;;5015070;28;20092;-53
2022/03/09 00:34:09;;;;;;;23.05;8.90;;;0.20;99.90;;;;;;5016350;28;20037;-49
2022/03/09 00:36:35;;;;;;;21.70;8.48;;;0.20;99.90;;;;;;5016153;28;20037;-52
2022/03/09 00:39:00;;;;;;;21.42;8.60;;;0.30;99.90;;;;;;5016145;28;20030;-51
2022/03/09 00:41:26;;;;;;;18.23;7.97;;;0.20;99.90;;;;;;5016402;28;20021;-51
2022/03/09 00:43:51;;;;;;;18.50;8.23;;;0.10;99.90;;;;;;5015353;28;20052;-50
2022/03/09 00:46:17;;;;;;;25.48;9.43;;;0.10;99.90;;;;;;5016236;28;20081;-52
2022/03/09 00:48:42;;;;;;;21.80;9.30;;;0.00;99.90;;;;;;5016264;28;20029;-50
2022/03/09 00:51:08;;;;;;;27.80;8.70;;;0.00;99.90;;;;;;5015491;28;20101;-50
2022/03/09 00:53:34;;;;;;;17.30;7.28;;;0.00;99.90;;;;;;5015814;28;20028;-57
2022/03/09 00:55:59;;;;;;;15.50;7.63;;;0.20;99.90;;;;;;5014557;28;20392;-57
2022/03/09 00:58:25;;;;;;;13.50;7.05;;;0.10;99.90;;;;;;5015462;28;20050;-56
2022/03/09 01:00:50;;;;;;;15.32;7.55;;;0.10;99.90;;;;;;5014601;28;20112;-51
2022/03/09 01:03:16;;;;;;;21.10;8.52;;;0.10;99.90;;;;;;5014472;28;20022;-52
2022/03/09 01:05:42;;;;;;;22.75;7.82;;;0.00;99.90;;;;;;5015917;28;20021;-50
2022/03/09 01:08:08;;;;;;;18.58;8.15;;;-0.10;99.90;;;;;;5015558;28;20042;-50
2022/03/09 01:10:34;;;;;;;16.30;7.05;;;-0.20;99.90;;;;;;5015673;28;20045;-50
2022/03/09 01:13:00;;;;;;;19.00;8.55;;;-0.30;99.90;;;;;;5014345;28;20051;-57
2022/03/09 01:15:26;;;;;;;23.67;8.60;;;-0.40;99.90;;;;;;5015469;28;20088;-51
2022/03/09 01:17:51;;;;;;;18.65;7.68;;;-0.30;99.90;;;;;;5014281;28;20026;-50
2022/03/09 01:20:17;;;;;;;23.05;8.02;;;-0.30;99.90;;;;;;5014187;28;20029;-52
2022/03/09 01:22:42;;;;;;;22.00;8.05;;;-0.40;99.90;;;;;;5014215;28;20030;-51
2022/03/09 01:25:09;;;;;;;14.52;7.00;;;-0.40;99.90;;;;;;5015411;28;20085;-52
2022/03/09 01:27:35;;;;;;;22.40;7.60;;;-0.40;99.90;;;;;;5014056;28;20021;-52
2022/03/09 01:30:01;;;;;;;15.93;7.47;;;-0.50;99.90;;;;;;5015264;28;20059;-50
2022/03/09 01:32:27;;;;;;;16.75;7.03;;;-0.50;99.90;;;;;;5014139;28;20034;-54
2022/03/09 01:34:53;;;;;;;18.52;7.82;;;-0.50;99.90;;;;;;5015078;28;20033;-52
2022/03/09 01:37:18;;;;;;;14.95;7.10;;;-0.40;99.90;;;;;;5015584;28;20026;-51
2022/03/09 01:39:44;;;;;;;16.92;7.32;;;-0.40;99.90;;;;;;5015015;28;20033;-51
2022/03/09 01:42:10;;;;;;;14.50;7.40;;;-0.50;99.90;;;;;;5014568;28;20180;-52
2022/03/09 01:44:35;;;;;;;17.73;7.45;;;-0.60;99.90;;;;;;5014833;28;20062;-49
2022/03/09 01:47:01;;;;;;;19.05;7.40;;;-0.60;99.90;;;;;;5014801;28;20029;-52
2022/03/09 01:49:26;;;;;;;16.85;6.63;;;-0.70;99.90;;;;;;5013622;28;20022;-54
2022/03/09 01:51:55;;;;;;;17.10;8.52;;;-0.80;99.90;;;;;;5013545;28;20431;-50
2022/03/09 01:54:21;;;;;;;14.00;6.97;;;-1.00;99.90;;;;;;5014803;28;20029;-53
2022/03/09 01:56:48;;;;;;;19.85;7.05;;;-0.90;99.90;;;;;;5014682;28;20024;-52
2022/03/09 01:59:15;;;;;;;17.83;7.63;;;-0.80;99.90;;;;;;5013705;28;20026;-49
2022/03/09 02:01:42;;;;;;;16.58;8.25;;;-0.70;99.90;;;;;;5014669;28;20030;-52
2022/03/09 02:04:07;;;;;;;16.08;7.18;;;-0.70;99.90;;;;;;5013794;28;20041;-51
2022/03/09 02:06:35;;;;;;;20.10;7.47;;;-0.60;99.90;;;;;;5013523;28;20026;-51
2022/03/09 02:11:48;;;;;;;19.52;7.75;;;-0.60;99.90;;;;;;5015061;28;20092;-50
2022/03/09 02:14:36;;;;;;;16.58;7.22;;;-0.70;99.90;;;;;;5014422;28;20431;-50
2022/03/09 02:17:14;;;;;;;15.55;7.38;;;-0.80;99.90;;;;;;5014308;28;20503;-52
2022/03/09 02:19:41;;;;;;;18.23;7.15;;;-0.60;99.90;;;;;;5013182;28;20137;-50
2022/03/09 02:22:20;;;;;;;16.45;6.88;;;-0.70;99.90;;;;;;5013082;28;20026;-53
2022/03/09 02:24:47;;;;;;;15.15;6.72;;;-0.80;99.90;;;;;;5014254;28;20110;-57
2022/03/09 02:27:13;;;;;;;19.27;7.60;;;-0.80;99.90;;;;;;5014111;28;20018;-51
2022/03/09 02:29:39;;;;;;;17.50;7.82;;;-0.80;99.90;;;;;;5012950;28;20022;-56
2022/03/09 02:32:05;;;;;;;17.48;8.05;;;-1.00;99.90;;;;;;5014309;28;20034;-51
2022/03/09 02:34:31;;;;;;;17.52;7.75;;;-1.10;99.90;;;;;;5012746;28;20365;-51
2022/03/09 02:36:57;;;;;;;12.07;6.10;;;-1.00;99.90;;;;;;5014027;28;20030;-55
2022/03/09 02:39:22;;;;;;;19.23;7.13;;;-1.00;99.90;;;;;;5014035;28;20021;-56
2022/03/09 02:41:48;;;;;;;17.90;7.25;;;-1.00;99.90;;;;;;5013952;28;20496;-57
2022/03/09 02:44:14;;;;;;;17.20;7.72;;;-1.10;99.90;;;;;;5014110;28;20026;-57
2022/03/09 02:46:40;;;;;;;17.70;6.75;;;-1.20;99.90;;;;;;5012860;28;20026;-56
2022/03/09 02:49:05;;;;;;;19.63;6.45;;;-1.20;99.90;;;;;;5012972;28;20045;-53
2022/03/09 02:51:31;;;;;;;14.02;6.47;;;-1.20;99.90;;;;;;5013900;28;20492;-54
2022/03/09 02:53:57;;;;;;;16.45;6.68;;;-1.20;99.90;;;;;;5012963;28;20036;-51
2022/03/09 02:56:23;;;;;;;16.13;6.38;;;-1.20;99.90;;;;;;5013703;28;20061;-49
2022/03/09 02:58:49;;;;;;;19.27;8.13;;;-1.10;99.90;;;;;;5013752;28;20064;-52
2022/03/09 03:01:15;;;;;;;15.65;6.80;;;-1.10;99.90;;;;;;5013773;28;20022;-49
2022/03/09 03:03:41;;;;;;;16.33;6.78;;;-1.20;99.90;;;;;;5013695;28;20050;-50
2022/03/09 03:06:08;;;;;;;21.52;7.95;;;-1.20;99.90;;;;;;5012256;28;20057;-53
2022/03/09 03:08:34;;;;;;;18.92;7.40;;;-1.10;99.90;;;;;;5013647;28;20022;-50
2022/03/09 03:11:00;;;;;;;16.38;7.95;;;-1.10;99.90;;;;;;5013621;28;20018;-50
2022/03/09 03:13:26;;;;;;;13.32;7.30;;;-1.20;99.90;;;;;;5014164;28;20029;-50
2022/03/09 03:15:52;;;;;;;17.13;7.70;;;-1.40;99.90;;;;;;5013272;28;20018;-49
2022/03/09 03:18:18;;;;;;;17.17;6.88;;;-1.30;99.90;;;;;;5012564;28;20087;-51
2022/03/09 03:20:43;;;;;;;14.43;7.28;;;-1.30;99.90;;;;;;5014046;28;20033;-51
2022/03/09 03:23:09;;;;;;;16.10;7.05;;;-1.40;99.90;;;;;;5012326;28;20118;-50
2022/03/09 03:25:34;;;;;;;14.25;7.07;;;-1.20;99.90;;;;;;5012162;28;20033;-53
2022/03/09 03:28:00;;;;;;;20.45;7.82;;;-1.10;99.90;;;;;;5013475;28;20041;-53
2022/03/09 03:30:26;;;;;;;14.52;6.72;;;-1.20;99.90;;;;;;5012474;28;20113;-50
2022/03/09 03:32:51;;;;;;;22.60;8.25;;;-1.20;99.90;;;;;;5012027;28;20052;-50
2022/03/09 03:35:17;;;;;;;17.83;7.95;;;-1.10;99.90;;;;;;5013176;28;20022;-54
2022/03/09 03:37:42;;;;;;;22.92;8.50;;;-1.20;99.90;;;;;;5013593;28;20026;-52
2022/03/09 03:40:09;;;;;;;20.95;7.25;;;-1.20;99.90;;;;;;5012075;28;20109;-50
2022/03/09 03:42:34;;;;;;;17.15;7.93;;;-1.20;99.90;;;;;;5012090;28;20025;-49
2022/03/09 03:45:00;;;;;;;13.32;7.18;;;-1.40;99.90;;;;;;5011858;28;20030;-49
2022/03/09 03:47:26;;;;;;;17.77;6.78;;;-1.40;99.90;;;;;;5013240;28;20097;-50
2022/03/09 03:49:52;;;;;;;15.10;6.95;;;-1.40;99.90;;;;;;5013212;28;20030;-57
2022/03/09 03:52:17;;;;;;;17.48;7.22;;;-1.50;99.90;;;;;;5013211;28;20045;-57
2022/03/09 03:54:43;;;;;;;17.25;6.93;;;-1.60;99.90;;;;;;5013235;28;20029;-51
2022/03/09 03:57:08;;;;;;;21.83;8.70;;;-1.70;99.90;;;;;;5013140;28;20034;-54
2022/03/09 03:59:34;;;;;;;17.33;8.27;;;-1.60;99.90;;;;;;5012189;28;20041;-55
2022/03/09 04:02:00;;;;;;;19.50;6.97;;;-1.50;99.90;;;;;;5013129;28;20116;-57
2022/03/09 04:04:25;;;;;;;18.33;7.30;;;-1.60;99.90;;;;;;5011716;28;20030;-56
2022/03/09 04:06:51;;;;;;;15.50;6.70;;;-1.50;99.90;;;;;;5012051;28;20116;-56
2022/03/09 04:09:17;;;;;;;15.15;6.32;;;-1.60;99.90;;;;;;5013113;28;20022;-54
2022/03/09 04:11:42;;;;;;;15.85;6.90;;;-1.60;99.90;;;;;;5011971;28;20029;-49
2022/03/09 04:14:08;;;;;;;15.70;7.35;;;-1.50;99.90;;;;;;5012062;28;20021;-51
2022/03/09 04:16:33;;;;;;;15.60;7.03;;;-1.60;99.90;;;;;;5012306;28;20125;-52
2022/03/09 04:18:59;;;;;;;21.73;7.90;;;-1.80;99.90;;;;;;5013285;28;20052;-51
2022/03/09 04:21:25;;;;;;;21.40;7.65;;;-1.80;99.90;;;;;;5011997;28;20022;-51
2022/03/09 04:23:51;;;;;;;14.65;6.40;;;-1.70;99.90;;;;;;5013729;28;20026;-56
2022/03/09 04:26:16;;;;;;;16.27;6.38;;;-1.70;99.90;;;;;;5013082;28;20026;-56
2022/03/09 04:28:42;;;;;;;15.02;6.45;;;-1.70;99.90;;;;;;5016368;28;20022;-56
2022/03/09 04:31:08;;;;;;;13.80;6.22;;;-1.80;99.90;;;;;;5015424;28;20018;-56
2022/03/09 04:33:33;;;;;;;17.90;6.90;;;-1.70;99.90;;;;;;5015024;28;20036;-57
2022/03/09 04:35:59;;;;;;;16.38;6.38;;;-1.70;99.90;;;;;;5016199;28;20018;-55
2022/03/09 04:38:25;;;;;;;17.65;6.65;;;-1.70;99.90;;;;;;5014978;28;20018;-57
2022/03/09 04:40:50;;;;;;;19.60;7.35;;;-1.50;99.90;;;;;;5016269;28;20476;-56
2022/03/09 04:43:16;;;;;;;18.38;6.70;;;-1.70;99.90;;;;;;5014826;28;20104;-53
2022/03/09 04:45:41;;;;;;;15.45;6.88;;;-1.70;99.90;;;;;;5014808;28;20026;-54
2022/03/09 04:48:07;;;;;;;22.92;9.32;;;-1.80;99.90;;;;;;5016063;28;20026;-51
2022/03/09 04:50:33;;;;;;;15.73;7.60;;;-1.80;99.90;;;;;;5016293;28;20034;-52
2022/03/09 04:52:58;;;;;;;14.57;6.57;;;-1.80;99.90;;;;;;5016483;28;20029;-55
2022/03/09 04:55:24;;;;;;;19.02;6.25;;;-1.90;99.90;;;;;;5014910;28;20022;-50
2022/03/09 04:57:50;;;;;;;17.85;6.95;;;-1.90;99.90;;;;;;5016106;28;20026;-52
2022/03/09 05:00:17;;;;;;;15.25;6.47;;;-1.90;99.90;;;;;;5014864;28;20033;-49
2022/03/09 05:02:43;;;;;;;22.17;7.72;;;-1.90;99.90;;;;;;5014894;28;20030;-55
2022/03/09 05:05:09;;;;;;;19.88;7.55;;;-1.90;99.90;;;;;;5015652;28;20112;-50
2022/03/09 05:07:39;;;;;;;16.55;6.70;;;-1.90;99.90;;;;;;5015267;28;20112;-53
2022/03/09 05:10:05;;;;;;;15.98;7.30;;;-1.90;99.90;;;;;;5014395;28;20515;-53
2022/03/09 05:12:31;;;;;;;15.45;7.13;;;-2.00;99.90;;;;;;5014370;28;20022;-55
2022/03/09 05:14:56;;;;;;;13.02;6.53;;;-2.10;99.90;;;;;;5014612;28;20036;-51
2022/03/09 05:17:22;;;;;;;17.90;7.15;;;-2.10;99.90;;;;;;5014347;28;20026;-53
2022/03/09 05:19:48;;;;;;;14.30;7.10;;;-2.20;99.90;;;;;;5015404;28;20026;-54
2022/03/09 05:22:13;;;;;;;16.60;7.05;;;-2.20;99.90;;;;;;5015720;28;20025;-52
2022/03/09 05:24:39;;;;;;;13.60;7.18;;;-2.10;99.90;;;;;;5015561;28;20128;-54
2022/03/09 05:27:04;;;;;;;18.88;7.82;;;-2.20;99.90;;;;;;5014037;28;20041;-54
2022/03/09 05:29:30;;;;;;;14.18;6.30;;;-2.10;99.90;;;;;;5014087;28;20025;-53
2022/03/09 05:31:56;;;;;;;16.00;6.03;;;-2.10;99.90;;;;;;5014078;28;20041;-55
2022/03/09 05:34:22;;;;;;;15.07;6.90;;;-2.10;99.90;;;;;;5014180;28;20113;-55
2022/03/09 05:36:47;;;;;;;15.20;6.85;;;-2.20;99.90;;;;;;5014194;28;20034;-56
2022/03/09 05:39:13;;;;;;;27.40;7.55;;;-2.20;99.90;;;;;;5012989;28;20065;-57
2022/03/09 05:41:39;;;;;;;16.77;7.07;;;-2.10;99.90;;;;;;5015127;28;20030;-56
2022/03/09 05:44:06;;;;;;;19.10;7.18;;;-2.00;99.90;;;;;;5015010;28;20030;-56
2022/03/09 05:46:33;;;;;;;14.75;6.57;;;-2.00;99.90;;;;;;5013584;28;20022;-56
2022/03/09 05:48:59;;;;;;;16.50;6.70;;;-2.10;99.90;;;;;;5014951;28;20022;-55
2022/03/09 05:51:25;;;;;;;17.70;7.90;;;-2.20;99.90;;;;;;5013713;28;20056;-54
2022/03/09 05:53:51;;;;;;;21.50;6.75;;;-2.20;99.90;;;;;;5014789;28;20058;-52
2022/03/09 05:56:16;;;;;;;16.58;6.68;;;-2.20;99.90;;;;;;5013658;28;20412;-50
2022/03/09 05:58:42;;;;;;;17.15;7.13;;;-2.20;99.90;;;;;;5013455;28;20029;-52
2022/03/09 06:01:08;;;;;;;17.27;6.80;;;-2.20;99.90;;;;;;5015022;28;20022;-50
2022/03/09 06:03:33;;;;;;;19.17;6.88;;;-2.20;99.90;;;;;;5014664;28;20038;-55
2022/03/09 06:05:59;;;;;;;17.73;7.20;;;-2.30;99.90;;;;;;5015119;28;20021;-49
2022/03/09 06:08:25;;;;;;;17.55;6.55;;;-2.20;99.90;;;;;;5013392;28;20092;-50
2022/03/09 06:10:52;;;;;;;17.15;6.85;;;-2.10;99.90;;;;;;5014010;28;20092;-53
2022/03/09 06:13:18;;;;;;;12.90;6.80;;;-2.00;99.90;;;;;;5013282;28;20433;-50
2022/03/09 06:15:44;;;;;;;16.60;7.40;;;-1.90;99.90;;;;;;5013339;28;20064;-54
2022/03/09 06:18:10;;;;;;;13.90;6.47;;;-1.80;99.90;;;;;;5013690;28;20041;-51
2022/03/09 06:20:36;;;;;;;25.50;7.82;;;-1.30;99.90;;;;;;5015062;28;20029;-53
2022/03/09 06:23:02;;;;;;;18.02;6.78;;;-0.70;99.90;;;;;;5014607;28;20541;-57
2022/03/09 06:25:27;;;;;;;18.38;7.82;;;-0.10;99.90;;;;;;5013163;28;20036;-57
2022/03/09 06:27:53;;;;;;;21.15;7.82;;;0.70;99.90;;;;;;5013994;28;20052;-57
2022/03/09 06:30:20;;;;;;;17.15;7.68;;;1.30;99.90;;;;;;5014399;28;20033;-56
2022/03/09 06:32:47;;;;;;;23.13;8.57;;;1.60;99.90;;;;;;5013218;28;20116;-55
2022/03/09 06:35:14;;;;;;;15.40;7.80;;;2.30;99.90;;;;;;5012763;28;20029;-58
2022/03/09 06:37:40;;;;;;;15.65;7.88;;;3.00;99.90;;;;;;5013830;28;20172;-58
2022/03/09 06:40:07;;;;;;;13.25;6.70;;;3.70;99.90;;;;;;5014422;28;20030;-58
2022/03/09 06:42:33;;;;;;;15.95;7.65;;;4.00;99.90;;;;;;5013214;28;20053;-56
2022/03/09 06:44:59;;;;;;;19.02;10.48;;;4.80;99.90;;;;;;5012959;28;20481;-58
2022/03/09 06:47:25;;;;;;;19.55;9.85;;;5.30;99.90;;;;;;5014001;28;20101;-48
2022/03/09 06:49:51;;;;;;;22.88;10.48;;;5.80;99.90;;;;;;5013808;28;20026;-50
2022/03/09 06:52:16;;;;;;;24.55;11.77;;;6.60;99.90;;;;;;5013967;28;20030;-50
2022/03/09 06:54:42;;;;;;;34.30;18.05;;;7.30;99.90;;;;;;5013402;28;20028;-54
2022/03/09 06:57:08;;;;;;;22.05;9.02;;;7.90;99.90;;;;;;5012548;28;20022;-56
2022/03/09 06:59:34;;;;;;;17.00;8.65;;;8.30;99.90;;;;;;5012877;28;20025;-54
2022/03/09 07:01:59;;;;;;;17.08;8.50;;;9.00;99.20;;;;;;5013685;28;20076;-57
2022/03/09 07:04:25;;;;;;;14.18;7.18;;;8.90;98.20;;;;;;5012461;28;20045;-56
2022/03/09 07:06:50;;;;;;;13.15;7.80;;;9.50;99.70;;;;;;5013432;28;20105;-57
2022/03/09 07:09:16;;;;;;;13.52;7.45;;;10.20;96.70;;;;;;5013845;28;20022;-51
2022/03/09 07:11:42;;;;;;;15.07;7.15;;;10.40;94.10;;;;;;5012678;28;20085;-52
2022/03/09 07:14:07;;;;;;;13.18;8.35;;;10.00;94.00;;;;;;5012318;28;20022;-52
2022/03/09 07:16:34;;;;;;;12.32;7.63;;;11.10;94.80;;;;;;5012284;28;20022;-49
2022/03/09 07:18:59;;;;;;;14.43;9.88;;;11.70;91.80;;;;;;5012356;28;20029;-50
2022/03/09 07:21:25;;;;;;;18.40;10.43;;;12.10;90.60;;;;;;5012663;28;20026;-48
2022/03/09 07:23:51;;;;;;;13.80;8.90;;;12.60;88.40;;;;;;5013686;28;20104;-49
2022/03/09 07:26:16;;;;;;;13.13;8.02;;;13.20;85.50;;;;;;5013056;28;20022;-52
2022/03/09 07:28:42;;;;;;;15.95;8.95;;;13.60;88.50;;;;;;5012266;28;20058;-48
2022/03/09 07:31:08;;;;;;;15.23;9.30;;;14.40;80.90;;;;;;5013420;28;20105;-49
2022/03/09 07:33:34;;;;;;;14.65;9.13;;;14.70;76.30;;;;;;5012143;28;20116;-50
2022/03/09 07:36:00;;;;;;;15.95;9.90;;;15.10;77.70;;;;;;5012408;28;20049;-51
2022/03/09 07:38:27;;;;;;;16.10;10.10;;;15.20;74.90;;;;;;5013042;28;20033;-56
2022/03/09 07:40:52;;;;;;;17.88;9.68;;;15.00;72.50;;;;;;5012395;28;20022;-55
2022/03/09 07:43:18;;;;;;;14.73;9.65;;;14.70;72.90;;;;;;5013327;28;20500;-51
2022/03/09 07:45:45;;;;;;;14.02;9.00;;;15.40;72.80;;;;;;5013431;28;20026;-51
2022/03/09 07:48:10;;;;;;;16.70;9.50;;;16.30;73.80;;;;;;5013605;28;20018;-49
2022/03/09 07:50:36;;;;;;;16.45;9.63;;;16.50;68.20;;;;;;5012055;28;20022;-54
2022/03/09 07:53:03;;;;;;;14.60;8.82;;;16.40;68.80;;;;;;5012091;28;20049;-53
2022/03/09 07:55:29;;;;;;;19.45;8.63;;;15.70;67.50;;;;;;5013676;28;20049;-55
2022/03/09 07:57:54;;;;;;;17.02;9.80;;;16.50;69.50;;;;;;5013211;28;20064;-53
2022/03/09 08:00:20;;;;;;;14.32;9.35;;;17.10;66.90;;;;;;5013456;28;20034;-56
2022/03/09 08:02:46;;;;;;;14.05;8.82;;;16.90;65.10;;;;;;5014995;28;20025;-50
2022/03/09 08:05:11;;;;;;;16.27;9.55;;;17.40;65.10;;;;;;5016785;28;20473;-54
2022/03/09 08:07:37;;;;;;;12.45;8.95;;;17.20;62.00;;;;;;5015578;28;20030;-51
2022/03/09 08:10:04;;;;;;;17.67;10.07;;;17.40;61.80;;;;;;5015593;28;20093;-55
2022/03/09 08:12:30;;;;;;;15.40;9.40;;;18.20;60.50;;;;;;5016786;28;20097;-53
2022/03/09 08:14:56;;;;;;;14.30;9.45;;;17.90;61.10;;;;;;5015458;28;20245;-55
2022/03/09 08:17:22;;;;;;;15.05;9.25;;;17.40;59.80;;;;;;5015408;28;20029;-51
2022/03/09 08:19:48;;;;;;;12.70;8.88;;;18.50;61.70;;;;;;5016343;28;20111;-51
2022/03/09 08:22:13;;;;;;;12.65;9.23;;;18.90;58.40;;;;;;5015711;28;20093;-50
2022/03/09 08:24:39;;;;;;;23.35;13.48;;;18.90;58.50;;;;;;5016077;28;20026;-50
2022/03/09 08:27:05;;;;;;;16.23;11.32;;;19.50;58.10;;;;;;5015588;28;20022;-56
2022/03/09 08:29:30;;;;;;;20.23;12.10;;;20.40;57.00;;;;;;5016718;28;20026;-57
2022/03/09 08:31:56;;;;;;;19.02;11.68;;;20.00;56.20;;;;;;5015471;28;20034;-57
2022/03/09 08:34:22;;;;;;;15.57;10.95;;;20.50;55.90;;;;;;5015061;28;20025;-56
2022/03/09 08:37:33;;;;;;;18.83;12.48;;;21.70;56.50;;;;;;5014977;28;20065;-52
2022/03/09 08:39:59;;;;;;;14.23;9.88;;;22.10;53.60;;;;;;5016670;28;20042;-57
2022/03/09 08:42:25;;;;;;;13.38;10.50;;;22.60;53.60;;;;;;5016538;28;20066;-56
2022/03/09 08:44:51;;;;;;;16.02;9.45;;;23.60;52.00;;;;;;5015094;28;20061;-57
2022/03/09 08:47:16;;;;;;;14.90;9.32;;;22.40;50.50;;;;;;5015669;28;20025;-55
2022/03/09 08:49:42;;;;;;;13.50;9.23;;;22.60;50.60;;;;;;5015096;28;20120;-56
2022/03/09 08:52:10;;;;;;;17.05;10.50;;;22.40;51.70;;;;;;5016125;28;20030;-54
2022/03/09 08:54:36;;;;;;;14.35;10.43;;;23.00;52.10;;;;;;5014762;28;20026;-54
2022/03/09 08:57:03;;;;;;;15.77;11.82;;;23.40;51.40;;;;;;5016458;28;20049;-53
2022/03/09 08:59:29;;;;;;;14.50;10.15;;;23.50;49.80;;;;;;5016149;28;20029;-52
2022/03/09 09:01:54;;;;;;;13.95;9.77;;;24.30;51.40;;;;;;5015962;28;20026;-57
2022/03/09 09:04:20;;;;;;;16.13;10.85;;;23.90;47.80;;;;;;5015996;28;20026;-55
2022/03/09 09:06:46;;;;;;;15.55;10.43;;;23.20;48.30;;;;;;5015996;28;20030;-56
2022/03/09 09:09:11;;;;;;;19.65;11.77;;;22.40;50.00;;;;;;5014483;28;20053;-54
2022/03/09 09:11:38;;;;;;;14.63;10.02;;;23.50;49.50;;;;;;5015954;28;20021;-54
2022/03/09 09:14:03;;;;;;;16.52;11.57;;;23.50;50.70;;;;;;5014165;28;20033;-53
2022/03/09 09:16:29;;;;;;;21.02;12.20;;;23.10;47.40;;;;;;5015184;28;20026;-52
2022/03/09 09:18:54;;;;;;;20.70;12.13;;;23.30;49.10;;;;;;5015579;28;20026;-54
2022/03/09 09:21:20;;;;;;;20.23;11.32;;;24.10;48.00;;;;;;5014528;28;20041;-57
2022/03/09 09:23:46;;;;;;;14.40;9.52;;;25.50;48.20;;;;;;5014132;28;20022;-51
2022/03/09 09:26:15;;;;;;;17.80;11.85;;;25.70;49.00;;;;;;5014208;28;20033;-57
2022/03/09 09:28:40;;;;;;;16.35;11.00;;;26.70;45.00;;;;;;5015556;28;20022;-57
2022/03/09 09:31:06;;;;;;;14.75;10.88;;;27.10;44.80;;;;;;5014108;28;20030;-57
2022/03/09 09:33:32;;;;;;;13.75;10.60;;;26.40;44.70;;;;;;5015284;28;20112;-58
2022/03/09 09:35:57;;;;;;;17.55;10.80;;;26.70;44.80;;;;;;5015001;28;20022;-58
2022/03/09 09:38:23;;;;;;;19.58;11.55;;;26.90;44.40;;;;;;5015129;28;20034;-57
2022/03/09 09:40:53;;;;;;;16.77;10.80;;;27.80;42.90;;;;;;5014197;28;20038;-57
2022/03/09 09:43:19;;;;;;;17.58;10.50;;;26.30;42.50;;;;;;5015058;28;20018;-56
2022/03/09 09:45:44;;;;;;;15.95;10.88;;;27.00;43.20;;;;;;5014831;28;20492;-57
2022/03/09 09:48:12;;;;;;;13.25;7.68;;;27.30;43.10;;;;;;5014917;28;20028;-57
2022/03/09 09:50:38;;;;;;;9.27;6.55;;;26.20;41.60;;;;;;5013786;28;20022;-55
2022/03/09 09:53:06;;;;;;;9.65;7.50;;;23.80;40.10;;;;;;5014960;28;20029;-55
2022/03/09 09:55:33;;;;;;;8.32;6.60;;;21.60;43.20;;;;;;5013575;28;20121;-55
2022/03/09 09:57:59;;;;;;;14.48;7.28;;;20.60;44.20;;;;;;5013734;28;20037;-55
2022/03/09 10:00:25;;;;;;;11.73;6.88;;;19.50;45.30;;;;;;5014423;28;20026;-52
2022/03/09 10:02:52;;;;;;;14.20;7.55;;;18.40;45.80;;;;;;5015048;28;20053;-55
2022/03/09 10:05:19;;;;;;;13.35;6.78;;;18.10;47.50;;;;;;5014505;28;20061;-54
2022/03/09 10:08:03;;;;;;;11.45;7.28;;;17.80;49.40;;;;;;5014755;28;20049;-54
2022/03/09 10:10:29;;;;;;;15.45;7.15;;;16.80;48.30;;;;;;5013376;28;20026;-53
2022/03/09 10:13:13;;;;;;;14.45;6.68;;;16.30;50.30;;;;;;5014521;28;20070;-53
2022/03/09 10:15:39;;;;;;;12.65;6.60;;;16.00;50.30;;;;;;5014186;28;20034;-54
2022/03/09 10:18:19;;;;;;;12.73;7.80;;;16.80;52.40;;;;;;5013251;28;20087;-56
2022/03/09 10:20:47;;;;;;;8.63;5.97;;;16.90;49.90;;;;;;5014511;28;20052;-56
2022/03/09 10:23:14;;;;;;;14.73;6.43;;;16.00;50.60;;;;;;5013301;28;20384;-55
2022/03/09 10:25:40;;;;;;;11.88;6.20;;;15.00;52.40;;;;;;5013484;28;20423;-56
2022/03/09 10:28:08;;;;;;;9.82;6.57;;;13.90;53.30;;;;;;5013179;28;20022;-51
2022/03/09 10:30:36;;;;;;;11.70;7.03;;;13.60;54.80;;;;;;5013310;28;20033;-53
2022/03/09 10:33:07;;;;;;;12.55;6.47;;;13.10;56.10;;;;;;5015064;28;20045;-50
2022/03/09 10:35:33;;;;;;;15.00;7.05;;;13.10;56.10;;;;;;5012916;28;20021;-48
2022/03/09 10:38:03;;;;;;;15.32;6.53;;;12.90;56.30;;;;;;5013574;28;20045;-50
2022/03/09 10:40:31;;;;;;;16.73;6.70;;;12.80;57.10;;;;;;5012925;28;20018;-51
2022/03/09 10:43:20;;;;;;;11.43;5.60;;;12.60;57.10;;;;;;5014131;28;20108;-49
2022/03/09 10:46:00;;;;;;;11.20;5.20;;;12.50;57.90;;;;;;5013939;28;20053;-50
2022/03/09 10:48:46;;;;;;;11.38;6.20;;;13.00;58.60;;;;;;5014240;28;20026;-50
2022/03/09 10:51:32;;;;;;;10.38;5.78;;;12.90;56.10;;;;;;4999208;28;20037;-50
2022/03/09 10:54:01;;;;;;;7.97;4.68;;;12.30;57.60;;;;;;5013972;28;20029;-50
2022/03/09 10:56:27;;;;;;;11.45;5.90;;;12.90;62.90;;;;;;5012570;28;20030;-51
2022/03/09 10:58:53;;;;;;;8.20;5.05;;;13.20;57.50;;;;;;5013827;28;20144;-49
2022/03/09 11:01:20;;;;;;;9.55;5.07;;;13.20;59.00;;;;;;5012800;28;20124;-49
2022/03/09 11:03:46;;;;;;;15.52;6.47;;;13.30;56.50;;;;;;5012423;28;20030;-51
2022/03/09 11:06:14;;;;;;;10.10;5.35;;;12.80;57.00;;;;;;5013903;28;20022;-53
2022/03/09 11:08:41;;;;;;;13.25;5.25;;;12.60;58.10;;;;;;5012355;28;20046;-49
2022/03/09 11:11:08;;;;;;;10.82;5.95;;;12.70;59.60;;;;;;5013715;28;20385;-53
2022/03/09 11:13:36;;;;;;;9.18;5.50;;;12.90;57.90;;;;;;5012326;28;20028;-53
2022/03/09 11:16:03;;;;;;;10.23;5.07;;;12.60;57.30;;;;;;5013530;28;20096;-50
2022/03/09 11:18:30;;;;;;;12.48;4.72;;;12.50;57.60;;;;;;5013823;28;20030;-49
2022/03/09 11:21:00;;;;;;;12.88;5.47;;;12.00;58.00;;;;;;5012355;28;20050;-52
2022/03/09 11:23:27;;;;;;;10.55;5.70;;;11.60;57.10;;;;;;5013603;28;20018;-49
2022/03/09 11:25:55;;;;;;;12.45;5.85;;;11.30;58.00;;;;;;5012350;28;20120;-48
2022/03/09 11:28:25;;;;;;;8.80;5.07;;;11.40;59.70;;;;;;5012826;28;20022;-48
2022/03/09 11:30:59;;;;;;;7.80;4.78;;;11.60;62.20;;;;;;5012307;28;20080;-48
2022/03/09 11:33:46;;;;;;;10.35;5.38;;;11.80;59.10;;;;;;5013725;28;20041;-49
2022/03/09 11:36:21;;;;;;;9.15;5.43;;;11.80;59.10;;;;;;5015061;28;20033;-48
2022/03/09 11:38:48;;;;;;;8.80;4.97;;;11.90;60.30;;;;;;5016271;28;20022;-51
2022/03/09 11:41:21;;;;;;;9.40;4.80;;;12.00;60.80;;;;;;5017438;28;20026;-49
2022/03/09 11:43:47;;;;;;;11.77;5.43;;;12.10;61.80;;;;;;5016162;28;20026;-51
2022/03/09 11:46:13;;;;;;;10.38;5.43;;;12.40;61.40;;;;;;5015986;28;20022;-49
2022/03/09 11:48:55;;;;;;;11.50;5.80;;;11.80;58.80;;;;;;5017191;28;20026;-48
2022/03/09 11:51:23;;;;;;;8.45;5.10;;;11.70;59.80;;;;;;5017593;28;20022;-50
2022/03/09 11:53:54;;;;;;;9.88;5.35;;;11.80;61.80;;;;;;5017029;28;20026;-48
2022/03/09 11:56:28;;;;;;;11.23;5.63;;;12.10;59.70;;;;;;5017517;28;20030;-50
2022/03/09 11:59:14;;;;;;;11.98;6.43;;;12.10;59.90;;;;;;5016761;28;20506;-54
2022/03/09 12:05:01;;;;;;;8.70;4.80;;;11.70;62.30;;;;;;5016724;28;20076;-49
2022/03/09 12:07:27;;;;;;;10.57;5.75;;;12.00;61.60;;;;;;5015675;28;20057;-51
2022/03/09 12:09:57;;;;;;;9.90;5.28;;;12.20;59.30;;;;;;5017136;28;20022;-53
2022/03/09 12:12:28;;;;;;;11.52;5.30;;;11.80;59.00;;;;;;5016774;28;20030;-51
2022/03/09 12:15:01;;;;;;;11.57;5.57;;;11.80;59.90;;;;;;5016642;28;20029;-53
2022/03/09 12:17:34;;;;;;;10.60;5.53;;;12.10;60.00;;;;;;5048195;28;20029;-52
2022/03/09 12:20:18;;;;;;;8.70;5.32;;;12.30;61.20;;;;;;5016243;28;20025;-50
2022/03/09 12:23:23;;;;;;;13.45;5.68;;;11.90;57.80;;;;;;5015281;28;20025;-53
2022/03/09 12:25:50;;;;;;;13.48;4.95;;;11.30;59.30;;;;;;5016862;28;20096;-50
2022/03/09 12:28:28;;;;;;;10.00;5.20;;;11.30;62.20;;;;;;5048698;28;20113;-55
2022/03/09 12:31:19;;;;;;;11.05;5.63;;;11.80;62.20;;;;;;5016481;28;20022;-53
2022/03/09 12:33:49;;;;;;;8.83;5.47;;;11.80;60.20;;;;;;5008615;28;20068;-57
2022/03/09 12:36:16;;;;;;;9.88;5.20;;;11.90;60.30;;;;;;5048206;28;20273;-55
2022/03/09 12:38:49;;;;;;;8.43;5.15;;;11.90;59.60;;;;;;5015093;28;20037;-51
2022/03/09 12:41:38;;;;;;;9.05;5.07;;;11.90;59.80;;;;;;5016584;28;20118;-51
2022/03/09 12:44:10;;;;;;;9.05;4.90;;;11.80;58.80;;;;;;5048104;28;20022;-49